sensor_id;sensor_type;location;lat;lon;timestamp;P1;durP1;ratioP1;P2;durP2;ratioP2
20383;SDS011;46458;50.966;7.002;2023-07-31T00:01:04;5.90;;;3.05;;
20383;SDS011;46458;50.966;7.002;2023-07-31T00:03:33;6.53;;;3.20;;
20383;SDS011;46458;50.966;7.002;2023-07-31T00:06:07;5.63;;;3.10;;
20383;SDS011;46458;50.966;7.002;2023-07-31T00:08:39;7.63;;;3.20;;
20383;SDS011;46458;50.966;7.002;2023-07-31T00:11:08;6.97;;;2.90;;
20383;SDS011;46458;50.966;7.002;2023-07-31T00:13:39;5.53;;;3.28;;
20383;SDS011;46458;50.966;7.002;2023-07-31T00:16:08;6.35;;;3.00;;
20383;SDS011;46458;50.966;7.002;2023-07-31T00:18:36;8.50;;;3.13;;
20383;SDS011;46458;50.966;7.002;2023-07-31T00:21:05;6.80;;;2.95;;
20383;SDS011;46458;50.966;7.002;2023-07-31T00:23:37;4.47;;;3.30;;
20383;SDS011;46458;50.966;7.002;2023-07-31T00:26:06;6.43;;;3.58;;
20383;SDS011;46458;50.966;7.002;2023-07-31T00:28:35;5.35;;;3.00;;
20383;SDS011;46458;50.966;7.002;2023-07-31T00:31:06;7.32;;;3.15;;
20383;SDS011;46458;50.966;7.002;2023-07-31T00:33:35;5.93;;;3.28;;
20383;SDS011;46458;50.966;7.002;2023-07-31T00:36:04;7.35;;;3.10;;
20383;SDS011;46458;50.966;7.002;2023-07-31T00:38:33;5.68;;;3.65;;
20383;SDS011;46458;50.966;7.002;2023-07-31T00:41:02;8.63;;;3.85;;
20383;SDS011;46458;50.966;7.002;2023-07-31T00:43:31;6.07;;;2.78;;
20383;SDS011;46458;50.966;7.002;2023-07-31T00:46:00;5.63;;;3.35;;
20383;SDS011;46458;50.966;7.002;2023-07-31T00:48:31;6.05;;;3.10;;
20383;SDS011;46458;50.966;7.002;2023-07-31T00:51:01;6.53;;;3.33;;
20383;SDS011;46458;50.966;7.002;2023-07-31T00:53:30;5.35;;;3.35;;
20383;SDS011;46458;50.966;7.002;2023-07-31T00:55:59;4.68;;;2.88;;
20383;SDS011;46458;50.966;7.002;2023-07-31T00:58:29;7.18;;;3.55;;
20383;SDS011;46458;50.966;7.002;2023-07-31T01:00:58;5.43;;;2.80;;
20383;SDS011;46458;50.966;7.002;2023-07-31T01:03:27;3.80;;;2.58;;
20383;SDS011;46458;50.966;7.002;2023-07-31T01:06:05;5.78;;;2.78;;
20383;SDS011;46458;50.966;7.002;2023-07-31T01:08:46;5.07;;;2.53;;
20383;SDS011;46458;50.966;7.002;2023-07-31T01:11:27;4.75;;;2.97;;
20383;SDS011;46458;50.966;7.002;2023-07-31T01:13:57;3.72;;;2.70;;
20383;SDS011;46458;50.966;7.002;2023-07-31T01:16:26;7.65;;;2.95;;
20383;SDS011;46458;50.966;7.002;2023-07-31T01:19:00;7.40;;;2.83;;
20383;SDS011;46458;50.966;7.002;2023-07-31T01:21:32;6.38;;;2.58;;
20383;SDS011;46458;50.966;7.002;2023-07-31T01:24:19;4.90;;;2.80;;
20383;SDS011;46458;50.966;7.002;2023-07-31T01:26:55;5.75;;;3.15;;
20383;SDS011;46458;50.966;7.002;2023-07-31T01:29:28;4.40;;;2.75;;
20383;SDS011;46458;50.966;7.002;2023-07-31T01:32:05;5.38;;;3.00;;
20383;SDS011;46458;50.966;7.002;2023-07-31T01:34:36;6.32;;;2.78;;
20383;SDS011;46458;50.966;7.002;2023-07-31T01:37:06;5.82;;;2.53;;
20383;SDS011;46458;50.966;7.002;2023-07-31T01:39:38;8.50;;;2.65;;
20383;SDS011;46458;50.966;7.002;2023-07-31T01:42:09;7.25;;;3.05;;
20383;SDS011;46458;50.966;7.002;2023-07-31T01:44:38;6.53;;;2.63;;
20383;SDS011;46458;50.966;7.002;2023-07-31T01:47:07;8.05;;;3.25;;
20383;SDS011;46458;50.966;7.002;2023-07-31T01:49:35;4.55;;;3.33;;
20383;SDS011;46458;50.966;7.002;2023-07-31T01:52:07;8.50;;;2.65;;
20383;SDS011;46458;50.966;7.002;2023-07-31T01:54:39;7.32;;;2.67;;
20383;SDS011;46458;50.966;7.002;2023-07-31T01:57:10;3.70;;;2.13;;
20383;SDS011;46458;50.966;7.002;2023-07-31T01:59:39;7.05;;;3.20;;
20383;SDS011;46458;50.966;7.002;2023-07-31T02:02:08;6.65;;;2.92;;
20383;SDS011;46458;50.966;7.002;2023-07-31T02:04:37;6.20;;;3.22;;
20383;SDS011;46458;50.966;7.002;2023-07-31T02:07:07;5.22;;;2.15;;
20383;SDS011;46458;50.966;7.002;2023-07-31T02:09:36;8.43;;;3.38;;
20383;SDS011;46458;50.966;7.002;2023-07-31T02:12:07;3.30;;;2.40;;
20383;SDS011;46458;50.966;7.002;2023-07-31T02:14:39;6.43;;;2.83;;
20383;SDS011;46458;50.966;7.002;2023-07-31T02:17:08;5.78;;;2.50;;
20383;SDS011;46458;50.966;7.002;2023-07-31T02:19:39;5.28;;;2.55;;
20383;SDS011;46458;50.966;7.002;2023-07-31T02:22:08;7.22;;;3.22;;
20383;SDS011;46458;50.966;7.002;2023-07-31T02:24:37;4.30;;;2.60;;
20383;SDS011;46458;50.966;7.002;2023-07-31T02:27:06;7.00;;;3.05;;
20383;SDS011;46458;50.966;7.002;2023-07-31T02:29:40;4.95;;;3.15;;
20383;SDS011;46458;50.966;7.002;2023-07-31T02:32:09;6.68;;;2.80;;
20383;SDS011;46458;50.966;7.002;2023-07-31T02:34:38;4.93;;;2.70;;
20383;SDS011;46458;50.966;7.002;2023-07-31T02:37:07;4.75;;;3.05;;
20383;SDS011;46458;50.966;7.002;2023-07-31T02:39:36;4.13;;;2.42;;
20383;SDS011;46458;50.966;7.002;2023-07-31T02:42:04;8.40;;;2.80;;
20383;SDS011;46458;50.966;7.002;2023-07-31T02:44:36;4.65;;;2.90;;
20383;SDS011;46458;50.966;7.002;2023-07-31T02:47:08;5.88;;;2.92;;
20383;SDS011;46458;50.966;7.002;2023-07-31T02:49:37;5.88;;;2.83;;
20383;SDS011;46458;50.966;7.002;2023-07-31T02:52:06;8.10;;;2.95;;
20383;SDS011;46458;50.966;7.002;2023-07-31T02:54:46;5.15;;;3.05;;
20383;SDS011;46458;50.966;7.002;2023-07-31T02:57:15;4.55;;;2.80;;
20383;SDS011;46458;50.966;7.002;2023-07-31T02:59:50;5.40;;;2.65;;
20383;SDS011;46458;50.966;7.002;2023-07-31T03:02:22;5.43;;;2.85;;
20383;SDS011;46458;50.966;7.002;2023-07-31T03:04:50;5.80;;;2.97;;
20383;SDS011;46458;50.966;7.002;2023-07-31T03:07:19;8.50;;;3.15;;
20383;SDS011;46458;50.966;7.002;2023-07-31T03:09:48;6.65;;;3.05;;
20383;SDS011;46458;50.966;7.002;2023-07-31T03:12:19;4.63;;;3.17;;
20383;SDS011;46458;50.966;7.002;2023-07-31T03:14:51;6.80;;;3.38;;
20383;SDS011;46458;50.966;7.002;2023-07-31T03:17:19;5.97;;;3.00;;
20383;SDS011;46458;50.966;7.002;2023-07-31T03:19:48;6.25;;;2.95;;
20383;SDS011;46458;50.966;7.002;2023-07-31T03:22:18;6.97;;;3.20;;
20383;SDS011;46458;50.966;7.002;2023-07-31T03:24:47;8.57;;;3.20;;
20383;SDS011;46458;50.966;7.002;2023-07-31T03:27:18;7.95;;;3.10;;
20383;SDS011;46458;50.966;7.002;2023-07-31T03:29:47;5.32;;;3.10;;
20383;SDS011;46458;50.966;7.002;2023-07-31T03:32:19;6.47;;;3.65;;
20383;SDS011;46458;50.966;7.002;2023-07-31T03:34:48;7.30;;;3.50;;
20383;SDS011;46458;50.966;7.002;2023-07-31T03:37:20;7.95;;;3.17;;
20383;SDS011;46458;50.966;7.002;2023-07-31T03:39:49;5.47;;;2.97;;
20383;SDS011;46458;50.966;7.002;2023-07-31T03:42:18;7.97;;;3.30;;
20383;SDS011;46458;50.966;7.002;2023-07-31T03:44:49;7.80;;;3.40;;
20383;SDS011;46458;50.966;7.002;2023-07-31T03:47:21;7.35;;;3.72;;
20383;SDS011;46458;50.966;7.002;2023-07-31T03:49:51;6.30;;;3.70;;
20383;SDS011;46458;50.966;7.002;2023-07-31T03:52:21;4.15;;;3.13;;
20383;SDS011;46458;50.966;7.002;2023-07-31T03:54:49;5.18;;;3.05;;
20383;SDS011;46458;50.966;7.002;2023-07-31T03:57:21;7.28;;;3.40;;
20383;SDS011;46458;50.966;7.002;2023-07-31T03:59:50;5.88;;;4.25;;
20383;SDS011;46458;50.966;7.002;2023-07-31T04:02:21;5.63;;;3.33;;
20383;SDS011;46458;50.966;7.002;2023-07-31T04:04:50;8.38;;;3.75;;
20383;SDS011;46458;50.966;7.002;2023-07-31T04:07:20;6.15;;;3.63;;
20383;SDS011;46458;50.966;7.002;2023-07-31T04:09:52;6.43;;;3.47;;
20383;SDS011;46458;50.966;7.002;2023-07-31T04:12:22;10.80;;;4.07;;
20383;SDS011;46458;50.966;7.002;2023-07-31T04:14:51;6.93;;;3.47;;
20383;SDS011;46458;50.966;7.002;2023-07-31T04:17:25;5.88;;;3.40;;
20383;SDS011;46458;50.966;7.002;2023-07-31T04:19:53;10.00;;;4.00;;
20383;SDS011;46458;50.966;7.002;2023-07-31T04:22:22;6.15;;;3.50;;
20383;SDS011;46458;50.966;7.002;2023-07-31T04:24:51;7.35;;;3.78;;
20383;SDS011;46458;50.966;7.002;2023-07-31T04:27:20;6.60;;;3.60;;
20383;SDS011;46458;50.966;7.002;2023-07-31T04:29:49;5.20;;;3.47;;
20383;SDS011;46458;50.966;7.002;2023-07-31T04:32:18;6.75;;;4.05;;
20383;SDS011;46458;50.966;7.002;2023-07-31T04:34:49;5.10;;;3.78;;
20383;SDS011;46458;50.966;7.002;2023-07-31T04:37:21;8.75;;;4.32;;
20383;SDS011;46458;50.966;7.002;2023-07-31T04:39:50;7.50;;;4.32;;
20383;SDS011;46458;50.966;7.002;2023-07-31T04:42:22;6.68;;;3.53;;
20383;SDS011;46458;50.966;7.002;2023-07-31T04:44:50;8.18;;;4.90;;
20383;SDS011;46458;50.966;7.002;2023-07-31T04:47:20;6.93;;;4.70;;
20383;SDS011;46458;50.966;7.002;2023-07-31T04:49:53;6.15;;;3.85;;
20383;SDS011;46458;50.966;7.002;2023-07-31T04:52:21;5.80;;;4.03;;
20383;SDS011;46458;50.966;7.002;2023-07-31T04:54:53;7.95;;;3.85;;
20383;SDS011;46458;50.966;7.002;2023-07-31T04:57:22;6.38;;;3.90;;
20383;SDS011;46458;50.966;7.002;2023-07-31T04:59:52;5.38;;;3.88;;
20383;SDS011;46458;50.966;7.002;2023-07-31T05:02:21;7.90;;;4.00;;
20383;SDS011;46458;50.966;7.002;2023-07-31T05:04:49;5.82;;;3.58;;
20383;SDS011;46458;50.966;7.002;2023-07-31T05:07:21;4.75;;;3.47;;
20383;SDS011;46458;50.966;7.002;2023-07-31T05:09:50;7.65;;;4.05;;
20383;SDS011;46458;50.966;7.002;2023-07-31T05:12:18;6.25;;;3.45;;
20383;SDS011;46458;50.966;7.002;2023-07-31T05:14:47;9.45;;;3.78;;
20383;SDS011;46458;50.966;7.002;2023-07-31T05:17:16;5.97;;;3.90;;
20383;SDS011;46458;50.966;7.002;2023-07-31T05:19:45;6.10;;;3.67;;
20383;SDS011;46458;50.966;7.002;2023-07-31T05:22:16;6.07;;;3.72;;
20383;SDS011;46458;50.966;7.002;2023-07-31T05:24:46;5.13;;;3.85;;
20383;SDS011;46458;50.966;7.002;2023-07-31T05:27:15;9.70;;;3.58;;
20383;SDS011;46458;50.966;7.002;2023-07-31T05:29:44;8.43;;;3.88;;
20383;SDS011;46458;50.966;7.002;2023-07-31T05:32:13;6.97;;;3.58;;
20383;SDS011;46458;50.966;7.002;2023-07-31T05:34:42;7.82;;;3.92;;
20383;SDS011;46458;50.966;7.002;2023-07-31T05:37:10;6.95;;;4.00;;
20383;SDS011;46458;50.966;7.002;2023-07-31T05:39:42;8.57;;;3.65;;
20383;SDS011;46458;50.966;7.002;2023-07-31T05:42:13;9.43;;;3.70;;
20383;SDS011;46458;50.966;7.002;2023-07-31T05:44:45;6.38;;;3.80;;
20383;SDS011;46458;50.966;7.002;2023-07-31T05:47:14;5.47;;;3.60;;
20383;SDS011;46458;50.966;7.002;2023-07-31T05:49:43;8.00;;;3.92;;
20383;SDS011;46458;50.966;7.002;2023-07-31T05:52:17;5.32;;;4.07;;
20383;SDS011;46458;50.966;7.002;2023-07-31T05:54:49;7.93;;;4.47;;
20383;SDS011;46458;50.966;7.002;2023-07-31T05:57:18;10.25;;;4.00;;
20383;SDS011;46458;50.966;7.002;2023-07-31T05:59:47;8.38;;;3.72;;
20383;SDS011;46458;50.966;7.002;2023-07-31T06:02:16;6.32;;;3.30;;
20383;SDS011;46458;50.966;7.002;2023-07-31T06:04:47;5.22;;;3.20;;
20383;SDS011;46458;50.966;7.002;2023-07-31T06:07:19;6.15;;;4.13;;
20383;SDS011;46458;50.966;7.002;2023-07-31T06:09:50;6.38;;;3.20;;
20383;SDS011;46458;50.966;7.002;2023-07-31T06:12:20;5.32;;;3.88;;
20383;SDS011;46458;50.966;7.002;2023-07-31T06:14:53;5.68;;;3.63;;
20383;SDS011;46458;50.966;7.002;2023-07-31T06:17:22;5.85;;;3.58;;
20383;SDS011;46458;50.966;7.002;2023-07-31T06:19:51;5.88;;;3.67;;
20383;SDS011;46458;50.966;7.002;2023-07-31T06:22:20;5.70;;;3.88;;
20383;SDS011;46458;50.966;7.002;2023-07-31T06:24:52;6.80;;;4.43;;
20383;SDS011;46458;50.966;7.002;2023-07-31T06:27:20;5.97;;;3.83;;
20383;SDS011;46458;50.966;7.002;2023-07-31T06:29:52;5.38;;;4.00;;
20383;SDS011;46458;50.966;7.002;2023-07-31T06:32:21;6.57;;;4.15;;
20383;SDS011;46458;50.966;7.002;2023-07-31T06:34:50;6.53;;;4.03;;
20383;SDS011;46458;50.966;7.002;2023-07-31T06:37:19;6.80;;;4.05;;
20383;SDS011;46458;50.966;7.002;2023-07-31T06:39:48;6.55;;;4.10;;
20383;SDS011;46458;50.966;7.002;2023-07-31T06:42:21;6.00;;;4.10;;
20383;SDS011;46458;50.966;7.002;2023-07-31T06:44:50;6.63;;;4.03;;
20383;SDS011;46458;50.966;7.002;2023-07-31T06:47:19;6.10;;;3.92;;
20383;SDS011;46458;50.966;7.002;2023-07-31T06:49:48;6.38;;;4.13;;
20383;SDS011;46458;50.966;7.002;2023-07-31T06:52:19;7.90;;;4.15;;
20383;SDS011;46458;50.966;7.002;2023-07-31T06:54:56;6.07;;;4.13;;
20383;SDS011;46458;50.966;7.002;2023-07-31T06:57:32;7.40;;;4.47;;
20383;SDS011;46458;50.966;7.002;2023-07-31T07:00:01;5.85;;;3.55;;
20383;SDS011;46458;50.966;7.002;2023-07-31T07:02:30;6.90;;;4.28;;
20383;SDS011;46458;50.966;7.002;2023-07-31T07:04:59;7.13;;;4.05;;
20383;SDS011;46458;50.966;7.002;2023-07-31T07:07:28;7.28;;;3.85;;
20383;SDS011;46458;50.966;7.002;2023-07-31T07:09:57;5.80;;;3.78;;
20383;SDS011;46458;50.966;7.002;2023-07-31T07:12:27;5.25;;;3.85;;
20383;SDS011;46458;50.966;7.002;2023-07-31T07:14:59;9.27;;;4.00;;
20383;SDS011;46458;50.966;7.002;2023-07-31T07:17:31;10.00;;;4.40;;
20383;SDS011;46458;50.966;7.002;2023-07-31T07:20:00;9.52;;;3.92;;
20383;SDS011;46458;50.966;7.002;2023-07-31T07:22:29;7.55;;;3.90;;
20383;SDS011;46458;50.966;7.002;2023-07-31T07:24:58;7.15;;;3.67;;
20383;SDS011;46458;50.966;7.002;2023-07-31T07:27:31;5.50;;;3.83;;
20383;SDS011;46458;50.966;7.002;2023-07-31T07:30:03;5.15;;;3.65;;
20383;SDS011;46458;50.966;7.002;2023-07-31T07:32:32;5.95;;;3.60;;
20383;SDS011;46458;50.966;7.002;2023-07-31T07:35:02;6.15;;;3.97;;
20383;SDS011;46458;50.966;7.002;2023-07-31T07:37:32;5.82;;;4.00;;
20383;SDS011;46458;50.966;7.002;2023-07-31T07:40:07;6.45;;;4.15;;
20383;SDS011;46458;50.966;7.002;2023-07-31T07:42:36;6.03;;;4.10;;
20383;SDS011;46458;50.966;7.002;2023-07-31T07:45:08;6.85;;;3.90;;
20383;SDS011;46458;50.966;7.002;2023-07-31T07:47:38;8.48;;;4.20;;
20383;SDS011;46458;50.966;7.002;2023-07-31T07:50:11;6.38;;;3.88;;
20383;SDS011;46458;50.966;7.002;2023-07-31T07:52:40;6.80;;;3.92;;
20383;SDS011;46458;50.966;7.002;2023-07-31T07:55:12;5.28;;;3.75;;
20383;SDS011;46458;50.966;7.002;2023-07-31T07:57:40;6.85;;;4.28;;
20383;SDS011;46458;50.966;7.002;2023-07-31T08:00:13;6.78;;;4.38;;
20383;SDS011;46458;50.966;7.002;2023-07-31T08:02:50;6.68;;;3.95;;
20383;SDS011;46458;50.966;7.002;2023-07-31T08:05:18;7.28;;;3.90;;
20383;SDS011;46458;50.966;7.002;2023-07-31T08:07:47;5.72;;;4.28;;
20383;SDS011;46458;50.966;7.002;2023-07-31T08:10:19;10.32;;;4.22;;
20383;SDS011;46458;50.966;7.002;2023-07-31T08:12:48;8.70;;;3.72;;
20383;SDS011;46458;50.966;7.002;2023-07-31T08:15:20;7.72;;;3.78;;
20383;SDS011;46458;50.966;7.002;2023-07-31T08:17:52;7.65;;;3.78;;
20383;SDS011;46458;50.966;7.002;2023-07-31T08:20:20;5.65;;;3.28;;
20383;SDS011;46458;50.966;7.002;2023-07-31T08:22:49;4.70;;;3.47;;
20383;SDS011;46458;50.966;7.002;2023-07-31T08:25:21;3.58;;;2.50;;
20383;SDS011;46458;50.966;7.002;2023-07-31T08:27:51;3.90;;;2.85;;
20383;SDS011;46458;50.966;7.002;2023-07-31T08:30:23;5.82;;;2.60;;
20383;SDS011;46458;50.966;7.002;2023-07-31T08:32:52;6.10;;;2.88;;
20383;SDS011;46458;50.966;7.002;2023-07-31T08:35:21;4.70;;;2.78;;
20383;SDS011;46458;50.966;7.002;2023-07-31T08:37:50;5.05;;;3.45;;
20383;SDS011;46458;50.966;7.002;2023-07-31T08:40:19;5.60;;;2.80;;
20383;SDS011;46458;50.966;7.002;2023-07-31T08:42:49;4.47;;;2.58;;
20383;SDS011;46458;50.966;7.002;2023-07-31T08:45:24;4.00;;;2.70;;
20383;SDS011;46458;50.966;7.002;2023-07-31T08:47:53;6.82;;;2.80;;
20383;SDS011;46458;50.966;7.002;2023-07-31T08:50:32;3.70;;;2.95;;
20383;SDS011;46458;50.966;7.002;2023-07-31T08:53:03;5.80;;;3.25;;
20383;SDS011;46458;50.966;7.002;2023-07-31T08:55:32;5.25;;;3.20;;
20383;SDS011;46458;50.966;7.002;2023-07-31T08:58:01;6.47;;;3.53;;
20383;SDS011;46458;50.966;7.002;2023-07-31T09:00:34;5.00;;;3.50;;
20383;SDS011;46458;50.966;7.002;2023-07-31T09:03:08;4.78;;;3.53;;
20383;SDS011;46458;50.966;7.002;2023-07-31T09:05:41;6.85;;;3.45;;
20383;SDS011;46458;50.966;7.002;2023-07-31T09:08:12;7.03;;;3.63;;
20383;SDS011;46458;50.966;7.002;2023-07-31T09:10:43;4.80;;;3.42;;
20383;SDS011;46458;50.966;7.002;2023-07-31T09:13:13;5.03;;;3.53;;
20383;SDS011;46458;50.966;7.002;2023-07-31T09:15:45;5.75;;;3.17;;
20383;SDS011;46458;50.966;7.002;2023-07-31T09:18:14;4.47;;;3.15;;
20383;SDS011;46458;50.966;7.002;2023-07-31T09:20:59;3.65;;;3.03;;
20383;SDS011;46458;50.966;7.002;2023-07-31T09:23:39;7.25;;;3.58;;
20383;SDS011;46458;50.966;7.002;2023-07-31T09:29:00;5.65;;;3.88;;
20383;SDS011;46458;50.966;7.002;2023-07-31T09:31:42;4.93;;;3.00;;
20383;SDS011;46458;50.966;7.002;2023-07-31T09:34:11;5.50;;;3.25;;
20383;SDS011;46458;50.966;7.002;2023-07-31T09:36:41;7.00;;;2.75;;
20383;SDS011;46458;50.966;7.002;2023-07-31T09:39:10;5.88;;;3.10;;
20383;SDS011;46458;50.966;7.002;2023-07-31T09:41:43;5.95;;;3.13;;
20383;SDS011;46458;50.966;7.002;2023-07-31T09:44:13;3.10;;;2.80;;
20383;SDS011;46458;50.966;7.002;2023-07-31T09:46:46;5.00;;;2.95;;
20383;SDS011;46458;50.966;7.002;2023-07-31T09:49:15;4.97;;;2.92;;
20383;SDS011;46458;50.966;7.002;2023-07-31T09:51:46;5.63;;;3.25;;
20383;SDS011;46458;50.966;7.002;2023-07-31T09:54:15;5.53;;;3.20;;
20383;SDS011;46458;50.966;7.002;2023-07-31T09:56:45;7.60;;;3.50;;
20383;SDS011;46458;50.966;7.002;2023-07-31T09:59:15;5.22;;;2.80;;
20383;SDS011;46458;50.966;7.002;2023-07-31T10:01:48;3.55;;;2.72;;
20383;SDS011;46458;50.966;7.002;2023-07-31T10:04:17;5.85;;;3.47;;
20383;SDS011;46458;50.966;7.002;2023-07-31T10:06:51;4.63;;;2.63;;
20383;SDS011;46458;50.966;7.002;2023-07-31T10:09:22;4.22;;;2.88;;
20383;SDS011;46458;50.966;7.002;2023-07-31T10:11:55;6.88;;;3.08;;
20383;SDS011;46458;50.966;7.002;2023-07-31T10:14:28;5.53;;;3.03;;
20383;SDS011;46458;50.966;7.002;2023-07-31T10:17:04;4.63;;;2.83;;
20383;SDS011;46458;50.966;7.002;2023-07-31T10:19:34;5.22;;;3.13;;
20383;SDS011;46458;50.966;7.002;2023-07-31T10:22:07;4.88;;;2.85;;
20383;SDS011;46458;50.966;7.002;2023-07-31T10:24:39;3.85;;;3.03;;
20383;SDS011;46458;50.966;7.002;2023-07-31T10:27:11;5.40;;;2.80;;
20383;SDS011;46458;50.966;7.002;2023-07-31T10:29:40;5.22;;;2.80;;
20383;SDS011;46458;50.966;7.002;2023-07-31T10:32:15;5.13;;;3.05;;
20383;SDS011;46458;50.966;7.002;2023-07-31T10:34:46;4.65;;;2.67;;
20383;SDS011;46458;50.966;7.002;2023-07-31T10:37:23;5.90;;;2.85;;
20383;SDS011;46458;50.966;7.002;2023-07-31T10:39:57;6.07;;;2.72;;
20383;SDS011;46458;50.966;7.002;2023-07-31T10:42:30;4.55;;;3.15;;
20383;SDS011;46458;50.966;7.002;2023-07-31T10:45:01;6.15;;;2.50;;
20383;SDS011;46458;50.966;7.002;2023-07-31T10:47:40;2.90;;;2.35;;
20383;SDS011;46458;50.966;7.002;2023-07-31T10:50:16;5.43;;;3.28;;
20383;SDS011;46458;50.966;7.002;2023-07-31T10:52:47;3.33;;;2.45;;
20383;SDS011;46458;50.966;7.002;2023-07-31T10:55:30;4.30;;;2.50;;
20383;SDS011;46458;50.966;7.002;2023-07-31T10:58:06;4.10;;;2.60;;
20383;SDS011;46458;50.966;7.002;2023-07-31T11:00:39;3.97;;;2.60;;
20383;SDS011;46458;50.966;7.002;2023-07-31T11:03:15;2.88;;;2.35;;
20383;SDS011;46458;50.966;7.002;2023-07-31T11:05:50;4.72;;;2.60;;
20383;SDS011;46458;50.966;7.002;2023-07-31T11:08:21;2.67;;;2.15;;
20383;SDS011;46458;50.966;7.002;2023-07-31T11:11:03;3.88;;;2.45;;
20383;SDS011;46458;50.966;7.002;2023-07-31T11:13:34;2.53;;;1.90;;
20383;SDS011;46458;50.966;7.002;2023-07-31T11:16:13;2.17;;;1.83;;
20383;SDS011;46458;50.966;7.002;2023-07-31T11:18:46;3.40;;;2.00;;
20383;SDS011;46458;50.966;7.002;2023-07-31T11:21:17;5.82;;;2.05;;
20383;SDS011;46458;50.966;7.002;2023-07-31T11:23:47;2.90;;;1.80;;
20383;SDS011;46458;50.966;7.002;2023-07-31T11:26:17;2.92;;;1.85;;
20383;SDS011;46458;50.966;7.002;2023-07-31T11:28:47;2.70;;;1.77;;
20383;SDS011;46458;50.966;7.002;2023-07-31T11:31:17;5.43;;;1.85;;
20383;SDS011;46458;50.966;7.002;2023-07-31T11:33:51;3.55;;;2.03;;
20383;SDS011;46458;50.966;7.002;2023-07-31T11:36:32;3.83;;;1.67;;
20383;SDS011;46458;50.966;7.002;2023-07-31T11:39:04;3.60;;;1.67;;
20383;SDS011;46458;50.966;7.002;2023-07-31T11:41:33;2.20;;;1.48;;
20383;SDS011;46458;50.966;7.002;2023-07-31T11:44:02;2.35;;;1.60;;
20383;SDS011;46458;50.966;7.002;2023-07-31T11:46:31;3.00;;;1.60;;
20383;SDS011;46458;50.966;7.002;2023-07-31T11:49:06;2.95;;;1.55;;
20383;SDS011;46458;50.966;7.002;2023-07-31T11:51:35;1.63;;;1.05;;
20383;SDS011;46458;50.966;7.002;2023-07-31T11:54:04;4.05;;;1.00;;
20383;SDS011;46458;50.966;7.002;2023-07-31T11:56:33;2.63;;;1.15;;
20383;SDS011;46458;50.966;7.002;2023-07-31T11:59:05;1.65;;;0.90;;
20383;SDS011;46458;50.966;7.002;2023-07-31T12:01:34;1.45;;;1.02;;
20383;SDS011;46458;50.966;7.002;2023-07-31T12:04:05;1.23;;;1.00;;
20383;SDS011;46458;50.966;7.002;2023-07-31T12:06:35;4.65;;;1.13;;
20383;SDS011;46458;50.966;7.002;2023-07-31T12:09:04;1.10;;;1.00;;
20383;SDS011;46458;50.966;7.002;2023-07-31T12:11:42;1.05;;;0.80;;
20383;SDS011;46458;50.966;7.002;2023-07-31T12:14:19;1.70;;;1.00;;
20383;SDS011;46458;50.966;7.002;2023-07-31T12:16:48;1.35;;;1.00;;
20383;SDS011;46458;50.966;7.002;2023-07-31T12:19:25;1.15;;;1.02;;
20383;SDS011;46458;50.966;7.002;2023-07-31T12:21:55;1.13;;;0.77;;
20383;SDS011;46458;50.966;7.002;2023-07-31T12:24:25;2.35;;;1.20;;
20383;SDS011;46458;50.966;7.002;2023-07-31T12:26:55;1.38;;;1.17;;
20383;SDS011;46458;50.966;7.002;2023-07-31T12:29:33;1.15;;;0.90;;
20383;SDS011;46458;50.966;7.002;2023-07-31T12:32:02;1.55;;;1.40;;
20383;SDS011;46458;50.966;7.002;2023-07-31T12:34:41;1.67;;;1.10;;
20383;SDS011;46458;50.966;7.002;2023-07-31T12:37:13;1.15;;;1.05;;
20383;SDS011;46458;50.966;7.002;2023-07-31T12:39:42;1.20;;;1.00;;
20383;SDS011;46458;50.966;7.002;2023-07-31T12:42:11;1.40;;;1.25;;
20383;SDS011;46458;50.966;7.002;2023-07-31T12:44:40;2.97;;;1.15;;
20383;SDS011;46458;50.966;7.002;2023-07-31T12:47:09;1.85;;;1.63;;
20383;SDS011;46458;50.966;7.002;2023-07-31T12:49:40;1.33;;;1.23;;
20383;SDS011;46458;50.966;7.002;2023-07-31T12:52:09;1.50;;;1.40;;
20383;SDS011;46458;50.966;7.002;2023-07-31T12:54:38;2.25;;;1.48;;
20383;SDS011;46458;50.966;7.002;2023-07-31T12:57:08;3.83;;;3.05;;
20383;SDS011;46458;50.966;7.002;2023-07-31T12:59:36;2.33;;;1.55;;
20383;SDS011;46458;50.966;7.002;2023-07-31T13:02:10;2.35;;;1.52;;
20383;SDS011;46458;50.966;7.002;2023-07-31T13:04:42;1.88;;;1.60;;
20383;SDS011;46458;50.966;7.002;2023-07-31T13:07:10;2.20;;;1.52;;
20383;SDS011;46458;50.966;7.002;2023-07-31T13:09:39;3.03;;;1.67;;
20383;SDS011;46458;50.966;7.002;2023-07-31T13:12:08;2.17;;;1.80;;
20383;SDS011;46458;50.966;7.002;2023-07-31T13:14:37;2.53;;;1.80;;
20383;SDS011;46458;50.966;7.002;2023-07-31T13:17:09;3.33;;;2.35;;
20383;SDS011;46458;50.966;7.002;2023-07-31T13:19:43;2.28;;;1.85;;
20383;SDS011;46458;50.966;7.002;2023-07-31T13:22:13;3.63;;;1.92;;
20383;SDS011;46458;50.966;7.002;2023-07-31T13:24:42;3.53;;;2.13;;
20383;SDS011;46458;50.966;7.002;2023-07-31T13:27:11;3.45;;;2.10;;
20383;SDS011;46458;50.966;7.002;2023-07-31T13:29:42;3.33;;;2.20;;
20383;SDS011;46458;50.966;7.002;2023-07-31T13:32:11;2.97;;;2.28;;
20383;SDS011;46458;50.966;7.002;2023-07-31T13:34:45;3.28;;;2.15;;
20383;SDS011;46458;50.966;7.002;2023-07-31T13:37:15;3.20;;;2.47;;
20383;SDS011;46458;50.966;7.002;2023-07-31T13:39:44;2.80;;;2.50;;
20383;SDS011;46458;50.966;7.002;2023-07-31T13:42:13;4.20;;;2.33;;
20383;SDS011;46458;50.966;7.002;2023-07-31T13:44:41;3.58;;;2.58;;
20383;SDS011;46458;50.966;7.002;2023-07-31T13:47:10;4.18;;;2.58;;
20383;SDS011;46458;50.966;7.002;2023-07-31T13:49:45;5.65;;;2.30;;
20383;SDS011;46458;50.966;7.002;2023-07-31T13:52:14;3.08;;;2.15;;
20383;SDS011;46458;50.966;7.002;2023-07-31T13:54:43;2.38;;;1.98;;
20383;SDS011;46458;50.966;7.002;2023-07-31T13:57:12;3.67;;;2.08;;
20383;SDS011;46458;50.966;7.002;2023-07-31T13:59:41;4.38;;;2.30;;
20383;SDS011;46458;50.966;7.002;2023-07-31T14:02:11;3.28;;;2.55;;
20383;SDS011;46458;50.966;7.002;2023-07-31T14:04:40;4.10;;;2.65;;
20383;SDS011;46458;50.966;7.002;2023-07-31T14:07:12;2.88;;;2.58;;
20383;SDS011;46458;50.966;7.002;2023-07-31T14:09:40;3.20;;;2.67;;
20383;SDS011;46458;50.966;7.002;2023-07-31T14:12:09;3.67;;;2.30;;
20383;SDS011;46458;50.966;7.002;2023-07-31T14:14:38;2.38;;;2.05;;
20383;SDS011;46458;50.966;7.002;2023-07-31T14:17:07;2.20;;;1.90;;
20383;SDS011;46458;50.966;7.002;2023-07-31T14:19:35;4.18;;;2.40;;
20383;SDS011;46458;50.966;7.002;2023-07-31T14:22:07;2.95;;;2.25;;
20383;SDS011;46458;50.966;7.002;2023-07-31T14:24:39;3.33;;;2.10;;
20383;SDS011;46458;50.966;7.002;2023-07-31T14:27:07;4.18;;;2.30;;
20383;SDS011;46458;50.966;7.002;2023-07-31T14:29:36;5.32;;;2.10;;
20383;SDS011;46458;50.966;7.002;2023-07-31T14:32:05;3.08;;;2.30;;
20383;SDS011;46458;50.966;7.002;2023-07-31T14:34:35;3.10;;;2.35;;
20383;SDS011;46458;50.966;7.002;2023-07-31T14:37:13;3.63;;;2.50;;
20383;SDS011;46458;50.966;7.002;2023-07-31T14:39:51;5.63;;;2.13;;
20383;SDS011;46458;50.966;7.002;2023-07-31T14:42:22;3.30;;;2.58;;
20383;SDS011;46458;50.966;7.002;2023-07-31T14:44:57;2.75;;;2.30;;
20383;SDS011;46458;50.966;7.002;2023-07-31T14:47:25;4.00;;;2.45;;
20383;SDS011;46458;50.966;7.002;2023-07-31T14:49:56;3.05;;;2.30;;
20383;SDS011;46458;50.966;7.002;2023-07-31T14:52:25;3.75;;;2.88;;
20383;SDS011;46458;50.966;7.002;2023-07-31T14:54:56;3.38;;;2.55;;
20383;SDS011;46458;50.966;7.002;2023-07-31T14:57:25;4.72;;;2.97;;
20383;SDS011;46458;50.966;7.002;2023-07-31T15:00:03;3.17;;;2.50;;
20383;SDS011;46458;50.966;7.002;2023-07-31T15:02:33;5.28;;;2.90;;
20383;SDS011;46458;50.966;7.002;2023-07-31T15:05:03;4.50;;;2.85;;
20383;SDS011;46458;50.966;7.002;2023-07-31T15:07:36;3.28;;;2.72;;
20383;SDS011;46458;50.966;7.002;2023-07-31T15:10:07;3.20;;;2.53;;
20383;SDS011;46458;50.966;7.002;2023-07-31T15:12:36;2.83;;;2.45;;